createdAt,value
2023-03-15T00:01:52.318Z,3.07
2023-03-15T00:04:19.452Z,3.27
2023-03-15T00:06:46.162Z,1.90
2023-03-15T00:09:13.312Z,2.80
2023-03-15T00:11:39.985Z,2.40
2023-03-15T00:14:06.757Z,2.77
2023-03-15T00:16:33.570Z,2.13
2023-03-15T00:19:00.738Z,2.60
2023-03-15T00:21:29.866Z,2.37
2023-03-15T00:23:57.204Z,2.10
2023-03-15T00:26:25.212Z,2.40
2023-03-15T00:28:52.030Z,2.47
2023-03-15T00:31:21.466Z,2.50
2023-03-15T00:33:49.032Z,2.67
2023-03-15T00:36:16.307Z,2.60
2023-03-15T00:38:46.199Z,2.03
2023-03-15T00:41:15.617Z,2.33
2023-03-15T00:43:43.412Z,2.50
2023-03-15T00:46:10.442Z,2.30
2023-03-15T00:48:37.461Z,2.03
2023-03-15T00:51:10.923Z,2.83
2023-03-15T00:53:39.533Z,2.47
2023-03-15T00:56:17.813Z,2.83
2023-03-15T00:58:44.871Z,2.20
2023-03-15T01:01:30.663Z,2.63
2023-03-15T01:03:57.815Z,2.23
2023-03-15T01:06:27.771Z,2.20
2023-03-15T01:08:56.674Z,2.20
2023-03-15T01:11:26.464Z,2.30
2023-03-15T01:13:54.526Z,2.10
2023-03-15T01:16:21.884Z,2.40
2023-03-15T01:18:49.054Z,2.33
2023-03-15T01:21:16.246Z,2.00
2023-03-15T01:23:42.986Z,1.97
2023-03-15T01:26:12.715Z,2.13
2023-03-15T01:28:39.590Z,2.50
2023-03-15T01:31:06.653Z,2.43
2023-03-15T01:33:33.392Z,2.50
2023-03-15T01:36:02.665Z,2.33
2023-03-15T01:38:30.144Z,2.90
2023-03-15T01:40:56.911Z,2.60
2023-03-15T01:43:25.632Z,2.60
2023-03-15T01:46:19.669Z,2.87
2023-03-15T01:48:51.461Z,2.80
2023-03-15T01:51:27.601Z,3.37
2023-03-15T01:54:19.691Z,3.50
2023-03-15T01:56:52.668Z,2.87
2023-03-15T01:59:25.209Z,3.10
2023-03-15T02:01:54.572Z,3.70
2023-03-15T02:04:34.016Z,3.43
2023-03-15T02:07:03.336Z,3.73
2023-03-15T02:09:56.360Z,3.90
2023-03-15T02:12:23.127Z,3.77
2023-03-15T02:14:51.926Z,3.27
2023-03-15T02:17:22.077Z,3.20
2023-03-15T02:20:04.789Z,3.40
2023-03-15T02:22:53.467Z,2.93
2023-03-15T02:25:49.150Z,3.30
2023-03-15T02:28:17.776Z,3.87
2023-03-15T02:30:45.464Z,3.10
2023-03-15T02:33:26.168Z,3.63
2023-03-15T02:35:54.002Z,3.10
2023-03-15T02:38:22.667Z,3.00
2023-03-15T02:40:51.688Z,3.13
2023-03-15T02:43:23.475Z,2.80
2023-03-15T02:45:50.671Z,3.07
2023-03-15T02:48:18.359Z,3.33
2023-03-15T02:50:45.088Z,2.97
2023-03-15T02:53:12.398Z,3.00
2023-03-15T02:55:39.428Z,2.83
2023-03-15T02:58:06.167Z,2.80
2023-03-15T03:00:32.989Z,2.97
2023-03-15T03:02:59.799Z,2.80
2023-03-15T03:05:26.563Z,3.13
2023-03-15T03:07:53.270Z,2.93
2023-03-15T03:10:21.220Z,2.80
2023-03-15T03:12:48.008Z,2.33
2023-03-15T03:15:14.708Z,3.37
2023-03-15T03:17:41.444Z,3.07
2023-03-15T03:20:11.658Z,3.10
2023-03-15T03:22:38.612Z,3.83
2023-03-15T03:25:06.388Z,4.10
2023-03-15T03:27:36.731Z,4.70
2023-03-15T03:30:08.582Z,3.60
2023-03-15T03:32:35.709Z,3.73
2023-03-15T03:35:02.710Z,3.93
2023-03-15T03:37:30.906Z,3.57
2023-03-15T03:39:58.209Z,3.90
2023-03-15T03:42:25.179Z,4.50
2023-03-15T03:44:53.994Z,4.50
2023-03-15T03:47:21.192Z,3.60
2023-03-15T03:49:47.915Z,4.90
2023-03-15T03:52:14.636Z,4.57
2023-03-15T03:54:42.771Z,4.50
2023-03-15T03:57:11.102Z,4.80
2023-03-15T03:59:37.851Z,4.50
2023-03-15T04:02:04.640Z,5.60
2023-03-15T04:04:31.594Z,4.50
2023-03-15T04:06:58.433Z,4.73
2023-03-15T04:09:25.180Z,4.50
2023-03-15T04:11:51.892Z,5.40
2023-03-15T04:14:18.619Z,5.57
2023-03-15T04:16:45.530Z,5.60
2023-03-15T04:19:12.947Z,5.97
2023-03-15T04:21:39.984Z,5.40
2023-03-15T04:24:07.477Z,5.63
2023-03-15T04:26:34.601Z,6.07
2023-03-15T04:29:01.386Z,5.90
2023-03-15T04:31:28.147Z,6.03
2023-03-15T04:33:55.474Z,7.30
2023-03-15T04:36:23.203Z,7.70
2023-03-15T04:38:50.836Z,7.27
2023-03-15T04:41:18.799Z,7.33
2023-03-15T04:43:46.216Z,7.23
2023-03-15T04:46:13.000Z,7.83
2023-03-15T04:48:39.734Z,8.47
2023-03-15T04:51:06.429Z,9.47
2023-03-15T04:53:33.148Z,10.17
2023-03-15T04:55:59.992Z,13.32
2023-03-15T04:58:26.689Z,11.03
2023-03-15T05:00:54.124Z,11.40
2023-03-15T05:03:21.156Z,11.90
2023-03-15T05:05:47.989Z,11.80
2023-03-15T05:08:14.997Z,11.60
2023-03-15T05:10:41.766Z,10.37
2023-03-15T05:13:08.495Z,10.97
2023-03-15T05:15:35.253Z,11.40
2023-03-15T05:18:01.954Z,12.33
2023-03-15T05:20:28.654Z,11.00
2023-03-15T05:22:55.361Z,12.03
2023-03-15T05:25:22.250Z,11.40
2023-03-15T05:27:49.203Z,10.70
2023-03-15T05:30:16.427Z,11.40
2023-03-15T05:32:44.704Z,11.57
2023-03-15T05:35:12.759Z,11.00
2023-03-15T05:37:40.272Z,11.63
2023-03-15T05:40:08.288Z,11.73
2023-03-15T05:42:35.246Z,11.07
2023-03-15T05:45:02.222Z,12.13
2023-03-15T05:47:28.939Z,10.83
2023-03-15T05:49:55.649Z,12.57
2023-03-15T05:52:22.399Z,11.33
2023-03-15T05:54:49.180Z,10.87
2023-03-15T05:57:15.881Z,11.17
2023-03-15T05:59:42.558Z,11.23
2023-03-15T06:02:09.978Z,12.27
2023-03-15T06:04:38.134Z,11.90
2023-03-15T06:07:05.190Z,11.27
2023-03-15T06:09:32.234Z,10.60
2023-03-15T06:11:59.251Z,11.60
2023-03-15T06:14:27.442Z,11.50
2023-03-15T06:16:54.739Z,10.83
2023-03-15T06:19:22.206Z,10.97
2023-03-15T06:21:49.663Z,10.57
2023-03-15T06:24:16.491Z,11.07
2023-03-15T06:26:43.291Z,10.00
2023-03-15T06:29:09.969Z,10.17
2023-03-15T06:31:36.802Z,11.17
2023-03-15T06:34:03.531Z,10.47
2023-03-15T06:36:31.458Z,10.13
2023-03-15T06:38:58.279Z,10.80
2023-03-15T06:41:25.161Z,10.03
2023-03-15T06:43:51.898Z,9.07
2023-03-15T06:46:18.640Z,9.30
2023-03-15T06:48:45.400Z,9.67
2023-03-15T06:51:12.173Z,9.20
2023-03-15T06:53:38.986Z,8.83
2023-03-15T06:56:05.934Z,8.07
2023-03-15T06:58:32.692Z,8.20
2023-03-15T07:00:59.466Z,7.10
2023-03-15T07:03:26.516Z,7.13
2023-03-15T07:05:54.446Z,7.07
2023-03-15T07:08:22.185Z,6.40
2023-03-15T07:10:50.358Z,7.97
2023-03-15T07:13:18.127Z,7.03
2023-03-15T07:15:45.389Z,7.03
2023-03-15T07:18:12.084Z,7.10
2023-03-15T07:20:38.786Z,6.90
2023-03-15T07:23:05.838Z,7.30
2023-03-15T07:25:37.662Z,6.80
2023-03-15T07:28:08.923Z,6.20
2023-03-15T07:30:35.603Z,5.30
2023-03-15T07:33:02.367Z,4.97
2023-03-15T07:35:29.183Z,6.23
2023-03-15T07:37:56.008Z,4.73
2023-03-15T07:40:23.555Z,5.30
2023-03-15T07:42:50.296Z,5.50
2023-03-15T07:45:17.162Z,6.60
2023-03-15T07:47:44.349Z,5.53
2023-03-15T07:50:13.237Z,6.60
2023-03-15T07:52:41.304Z,11.13
2023-03-15T07:55:08.954Z,5.87
2023-03-15T07:57:35.744Z,4.40
2023-03-15T08:00:02.570Z,3.93
2023-03-15T08:02:30.653Z,4.43
2023-03-15T08:04:58.826Z,4.43
2023-03-15T08:07:25.919Z,4.37
2023-03-15T08:09:52.676Z,3.60
2023-03-15T08:12:19.462Z,3.27
2023-03-15T08:14:46.209Z,3.58
2023-03-15T08:17:13.192Z,3.78
2023-03-15T08:19:40.356Z,3.22
2023-03-15T08:22:07.584Z,2.97
2023-03-15T08:24:34.452Z,2.88
2023-03-15T08:27:01.334Z,2.95
2023-03-15T08:29:28.631Z,2.90
2023-03-15T08:31:55.432Z,4.20
2023-03-15T08:34:22.231Z,3.15
2023-03-15T08:36:49.616Z,2.80
2023-03-15T08:39:16.539Z,3.00
2023-03-15T08:41:43.632Z,2.57
2023-03-15T08:44:10.720Z,2.70
2023-03-15T08:46:37.452Z,2.87
2023-03-15T08:49:04.171Z,2.47
2023-03-15T08:51:31.118Z,3.07
2023-03-15T08:53:57.811Z,2.77
2023-03-15T08:56:24.540Z,2.87
2023-03-15T08:58:51.671Z,2.87
2023-03-15T09:01:18.411Z,2.60
2023-03-15T09:03:45.143Z,2.33
2023-03-15T09:06:11.888Z,2.50
2023-03-15T09:08:38.643Z,3.40
2023-03-15T09:11:05.571Z,2.87
2023-03-15T09:13:32.248Z,3.00
2023-03-15T09:15:58.947Z,3.00
2023-03-15T09:18:26.107Z,3.57
2023-03-15T09:20:52.863Z,2.80
2023-03-15T09:23:19.686Z,3.43
2023-03-15T09:25:46.453Z,3.77
2023-03-15T09:28:13.171Z,3.90
2023-03-15T09:30:41.124Z,4.27
2023-03-15T09:33:08.405Z,3.87
2023-03-15T09:35:35.332Z,3.53
2023-03-15T09:38:03.845Z,5.03
2023-03-15T09:40:38.789Z,3.30
2023-03-15T09:43:11.932Z,3.37
2023-03-15T09:46:03.059Z,3.57
2023-03-15T09:48:54.231Z,3.13
2023-03-15T09:51:27.013Z,3.40
2023-03-15T09:54:02.001Z,2.80
2023-03-15T09:56:37.566Z,2.53
2023-03-15T09:59:05.807Z,3.27
2023-03-15T10:01:34.836Z,2.87
2023-03-15T10:04:16.658Z,2.90
2023-03-15T10:06:48.179Z,3.00
2023-03-15T10:09:19.528Z,2.83
2023-03-15T10:12:13.458Z,2.70
2023-03-15T10:15:19.010Z,3.50
2023-03-15T10:18:28.017Z,3.00
2023-03-15T10:21:11.900Z,3.30
2023-03-15T10:23:51.304Z,3.53
2023-03-15T10:26:24.666Z,3.30
2023-03-15T10:28:55.471Z,2.93
2023-03-15T10:31:36.854Z,3.43
2023-03-15T10:34:11.675Z,3.30
2023-03-15T10:36:49.862Z,3.53
2023-03-15T10:39:17.053Z,3.50
2023-03-15T10:41:46.659Z,3.70
2023-03-15T10:44:17.169Z,3.27
2023-03-15T10:47:02.646Z,3.50
2023-03-15T10:49:35.360Z,3.10
2023-03-15T10:52:02.147Z,3.20
2023-03-15T10:54:28.920Z,3.10
2023-03-15T10:57:07.474Z,3.00
2023-03-15T10:59:35.599Z,3.10
2023-03-15T11:02:11.674Z,3.50
2023-03-15T11:05:13.914Z,2.93
2023-03-15T11:07:55.249Z,3.87
2023-03-15T11:10:25.291Z,3.47
2023-03-15T11:13:29.240Z,3.10
2023-03-15T11:16:04.549Z,3.60
2023-03-15T11:18:36.624Z,3.20
2023-03-15T11:21:08.224Z,3.10
2023-03-15T11:23:37.992Z,3.23
2023-03-15T11:26:06.242Z,3.50
2023-03-15T11:28:37.129Z,3.23
2023-03-15T11:31:05.349Z,2.63
2023-03-15T11:33:51.391Z,2.63
2023-03-15T11:36:22.338Z,2.63
2023-03-15T11:38:50.020Z,2.87
2023-03-15T11:41:44.612Z,2.53
2023-03-15T11:44:36.495Z,2.60
2023-03-15T11:47:18.620Z,2.93
2023-03-15T11:49:55.001Z,2.87
2023-03-15T11:52:27.334Z,2.83
2023-03-15T11:55:02.074Z,3.07
2023-03-15T11:57:28.732Z,3.03
2023-03-15T12:00:27.241Z,2.80
2023-03-15T12:02:57.694Z,2.33
2023-03-15T12:05:50.920Z,2.70
2023-03-15T12:09:04.821Z,2.57
2023-03-15T12:11:34.517Z,2.40
2023-03-15T12:14:01.204Z,2.50
2023-03-15T12:16:34.930Z,2.73
2023-03-15T12:19:23.573Z,2.70
2023-03-15T12:21:58.660Z,2.80
2023-03-15T12:24:37.272Z,2.93
2023-03-15T12:27:13.634Z,2.67
2023-03-15T12:29:41.520Z,2.73
2023-03-15T12:32:20.838Z,2.90
2023-03-15T12:34:51.910Z,2.37
2023-03-15T12:37:45.139Z,2.63
2023-03-15T12:40:22.460Z,2.30
2023-03-15T12:42:49.193Z,2.83
2023-03-15T12:45:15.868Z,2.90
2023-03-15T12:47:51.697Z,2.77
2023-03-15T12:50:46.123Z,2.90
2023-03-15T12:53:19.958Z,3.20
2023-03-15T12:55:47.646Z,3.50
2023-03-15T12:58:19.241Z,3.07
2023-03-15T13:00:46.841Z,3.10
2023-03-15T13:03:23.643Z,3.10
2023-03-15T13:06:13.246Z,3.40
2023-03-15T13:09:09.235Z,3.00
2023-03-15T13:12:08.371Z,3.10
2023-03-15T13:14:54.909Z,3.00
2023-03-15T13:17:26.936Z,3.00
2023-03-15T13:20:13.700Z,3.10
2023-03-15T13:23:16.736Z,3.43
2023-03-15T13:25:48.386Z,3.23
2023-03-15T13:28:22.757Z,3.40
2023-03-15T13:30:52.673Z,3.00
2023-03-15T13:33:31.760Z,3.27
2023-03-15T13:36:05.809Z,3.30
2023-03-15T13:38:35.223Z,2.87
2023-03-15T13:41:04.800Z,2.97
2023-03-15T13:43:37.356Z,3.03
2023-03-15T13:46:04.827Z,2.80
2023-03-15T13:48:34.561Z,2.60
2023-03-15T13:51:09.350Z,3.10
2023-03-15T13:53:49.379Z,3.00
2023-03-15T13:56:20.981Z,2.80
2023-03-15T13:58:49.142Z,2.63
2023-03-15T14:01:17.245Z,3.17
2023-03-15T14:03:50.186Z,2.70
2023-03-15T14:06:23.322Z,2.57
2023-03-15T14:08:54.757Z,2.20
2023-03-15T14:11:24.694Z,2.50
2023-03-15T14:13:52.768Z,2.33
2023-03-15T14:16:31.837Z,2.00
2023-03-15T14:19:19.977Z,2.40
2023-03-15T14:21:56.048Z,2.20
2023-03-15T14:24:33.307Z,2.20
2023-03-15T14:27:02.362Z,2.37
2023-03-15T14:29:31.450Z,2.03
2023-03-15T14:32:08.166Z,2.40
2023-03-15T14:34:37.735Z,2.30
2023-03-15T14:37:27.110Z,2.73
2023-03-15T14:40:16.123Z,3.13
2023-03-15T14:42:44.445Z,3.13
2023-03-15T14:45:11.493Z,2.97
2023-03-15T14:47:55.447Z,3.47
2023-03-15T14:50:24.777Z,2.87
2023-03-15T14:52:52.049Z,3.23
2023-03-15T14:55:21.358Z,3.23
2023-03-15T14:57:48.121Z,2.97
2023-03-15T15:00:17.273Z,2.73
2023-03-15T15:02:45.469Z,2.77
2023-03-15T15:05:33.370Z,3.13
2023-03-15T15:08:12.844Z,3.10
2023-03-15T15:10:41.551Z,3.00
2023-03-15T15:13:18.162Z,3.17
2023-03-15T15:15:55.238Z,3.27
2023-03-15T15:18:28.048Z,3.50
2023-03-15T15:21:04.320Z,3.33
2023-03-15T15:23:39.546Z,2.50
2023-03-15T15:26:18.669Z,2.03
2023-03-15T15:28:45.912Z,2.27
2023-03-15T15:31:16.110Z,2.07
2023-03-15T15:33:46.056Z,1.97
2023-03-15T15:36:35.947Z,1.50
2023-03-15T15:39:07.085Z,1.40
2023-03-15T15:41:34.859Z,1.30
2023-03-15T15:44:01.905Z,1.20
2023-03-15T15:46:28.894Z,1.80
2023-03-15T15:48:55.674Z,1.40
2023-03-15T15:51:28.384Z,1.60
2023-03-15T15:54:00.396Z,1.47
2023-03-15T15:56:33.809Z,1.40
2023-03-15T15:59:04.368Z,2.23
2023-03-15T16:01:31.820Z,2.10
2023-03-15T16:03:59.734Z,2.10
2023-03-15T16:06:29.316Z,1.60
2023-03-15T16:08:56.450Z,2.30
2023-03-15T16:11:23.391Z,2.40
2023-03-15T16:13:53.981Z,3.30
2023-03-15T16:16:21.988Z,2.80
2023-03-15T16:18:48.904Z,2.00
2023-03-15T16:21:34.862Z,2.10
2023-03-15T16:24:16.572Z,2.73
2023-03-15T16:26:45.129Z,3.33
2023-03-15T16:29:23.540Z,2.97
2023-03-15T16:31:51.191Z,5.27
2023-03-15T16:34:19.631Z,4.10
2023-03-15T16:36:49.748Z,4.17
2023-03-15T16:39:16.999Z,5.10
2023-03-15T16:41:43.732Z,4.27
2023-03-15T16:44:20.112Z,4.13
2023-03-15T16:46:48.138Z,5.13
2023-03-15T16:49:16.333Z,6.30
2023-03-15T16:51:47.495Z,5.93
2023-03-15T16:54:24.294Z,4.40
2023-03-15T16:56:54.842Z,3.30
2023-03-15T16:59:21.632Z,4.17
2023-03-15T17:01:50.456Z,5.20
2023-03-15T17:04:17.476Z,7.13
2023-03-15T17:06:45.753Z,6.03
2023-03-15T17:09:19.602Z,6.43
2023-03-15T17:11:48.497Z,7.27
2023-03-15T17:14:19.543Z,6.23
2023-03-15T17:16:46.419Z,4.70
2023-03-15T17:19:14.353Z,4.30
2023-03-15T17:21:42.814Z,3.63
2023-03-15T17:24:10.956Z,4.63
2023-03-15T17:26:38.510Z,4.27
2023-03-15T17:29:05.751Z,3.90
2023-03-15T17:31:34.602Z,4.50
2023-03-15T17:34:02.490Z,4.47
2023-03-15T17:36:37.453Z,4.50
2023-03-15T17:39:06.724Z,5.20
2023-03-15T17:41:39.147Z,5.37
2023-03-15T17:44:06.115Z,6.30
2023-03-15T17:46:33.334Z,7.43
2023-03-15T17:49:01.021Z,8.33
2023-03-15T17:51:30.485Z,7.73
2023-03-15T17:53:59.363Z,9.40
2023-03-15T17:56:28.261Z,8.97
2023-03-15T17:58:55.129Z,9.10
2023-03-15T18:01:27.802Z,7.33
2023-03-15T18:03:55.383Z,7.60
2023-03-15T18:06:22.803Z,7.77
2023-03-15T18:08:50.947Z,7.77
2023-03-15T18:11:26.037Z,7.80
2023-03-15T18:13:53.153Z,7.83
2023-03-15T18:16:20.132Z,7.90
2023-03-15T18:18:46.907Z,10.00
2023-03-15T18:21:16.813Z,12.30
2023-03-15T18:23:44.632Z,13.03
2023-03-15T18:26:12.909Z,13.73
2023-03-15T18:28:40.348Z,14.33
2023-03-15T18:31:14.566Z,14.33
2023-03-15T18:33:41.684Z,12.23
2023-03-15T18:36:08.965Z,13.20
2023-03-15T18:38:36.569Z,11.67
2023-03-15T18:41:03.636Z,11.00
2023-03-15T18:43:30.506Z,10.23
2023-03-15T18:45:57.274Z,9.07
2023-03-15T18:48:39.782Z,8.90
2023-03-15T18:51:12.183Z,9.83
2023-03-15T18:53:39.317Z,10.20
2023-03-15T18:56:06.435Z,9.70
2023-03-15T18:58:33.103Z,10.33
2023-03-15T19:01:00.074Z,9.73
2023-03-15T19:03:26.882Z,8.93
2023-03-15T19:05:53.689Z,10.83
2023-03-15T19:08:20.469Z,10.63
2023-03-15T19:10:47.373Z,13.20
2023-03-15T19:13:14.077Z,20.63
2023-03-15T19:15:40.936Z,18.37
2023-03-15T19:18:07.656Z,14.47
2023-03-15T19:20:35.089Z,12.90
2023-03-15T19:23:01.804Z,11.53
2023-03-15T19:25:28.592Z,10.07
2023-03-15T19:27:57.329Z,10.13
2023-03-15T19:30:24.057Z,10.70
2023-03-15T19:32:51.198Z,10.63
2023-03-15T19:35:20.130Z,8.73
2023-03-15T19:37:48.264Z,8.87
2023-03-15T19:40:16.359Z,8.10
2023-03-15T19:42:43.242Z,7.50
2023-03-15T19:45:10.448Z,8.23
2023-03-15T19:47:37.244Z,12.23
2023-03-15T19:50:05.380Z,16.63
2023-03-15T19:52:33.414Z,17.13
2023-03-15T19:55:01.254Z,13.60
2023-03-15T19:57:28.527Z,11.77
2023-03-15T19:59:55.345Z,10.20
2023-03-15T20:02:22.129Z,8.80
2023-03-15T20:04:48.827Z,7.50
2023-03-15T20:07:15.521Z,7.47
2023-03-15T20:09:42.307Z,8.43
2023-03-15T20:12:12.989Z,10.63
2023-03-15T20:14:39.934Z,14.40
2023-03-15T20:17:06.866Z,11.33
2023-03-15T20:19:33.880Z,9.80
2023-03-15T20:22:00.624Z,9.20
2023-03-15T20:24:27.380Z,10.00
2023-03-15T20:26:54.353Z,12.07
2023-03-15T20:29:22.438Z,15.30
2023-03-15T20:31:50.046Z,19.03
2023-03-15T20:34:17.615Z,24.70
2023-03-15T20:36:44.804Z,24.77
2023-03-15T20:39:11.664Z,23.27
2023-03-15T20:41:39.181Z,19.47
2023-03-15T20:44:07.714Z,12.80
2023-03-15T20:46:34.881Z,10.57
2023-03-15T20:49:01.877Z,9.53
2023-03-15T20:51:28.583Z,8.57
2023-03-15T20:53:55.458Z,7.73
2023-03-15T20:56:22.265Z,8.50
2023-03-15T20:58:49.040Z,10.60
2023-03-15T21:01:17.000Z,8.73
2023-03-15T21:03:45.026Z,7.90
2023-03-15T21:06:12.415Z,7.83
2023-03-15T21:08:39.230Z,7.53
2023-03-15T21:11:06.735Z,7.43
2023-03-15T21:13:34.795Z,6.60
2023-03-15T21:16:04.244Z,15.57
2023-03-15T21:18:32.777Z,11.20
2023-03-15T21:21:05.808Z,10.03
2023-03-15T21:23:33.145Z,11.20
2023-03-15T21:26:07.890Z,11.67
2023-03-15T21:28:34.899Z,12.97
2023-03-15T21:31:01.713Z,11.03
2023-03-15T21:33:31.075Z,11.87
2023-03-15T21:35:59.393Z,11.00
2023-03-15T21:38:31.477Z,11.40
2023-03-15T21:40:59.858Z,11.70
2023-03-15T21:43:29.044Z,12.07
2023-03-15T21:45:59.628Z,13.13
2023-03-15T21:48:26.705Z,15.03
2023-03-15T21:50:53.853Z,14.50
2023-03-15T21:53:21.839Z,13.47
2023-03-15T21:55:48.927Z,13.40
2023-03-15T21:58:16.127Z,14.03
2023-03-15T22:00:43.023Z,14.73
2023-03-15T22:03:09.883Z,14.23
2023-03-15T22:05:36.716Z,12.90
2023-03-15T22:08:03.487Z,13.97
2023-03-15T22:10:30.418Z,15.17
2023-03-15T22:12:57.165Z,16.77
2023-03-15T22:15:24.061Z,14.30
2023-03-15T22:17:51.037Z,15.53
2023-03-15T22:20:18.413Z,14.23
2023-03-15T22:22:46.612Z,17.40
2023-03-15T22:25:14.073Z,14.70
2023-03-15T22:27:41.918Z,14.17
2023-03-15T22:30:10.753Z,12.77
2023-03-15T22:32:37.531Z,10.93
2023-03-15T22:35:04.834Z,25.80
2023-03-15T22:37:34.036Z,25.33
2023-03-15T22:40:00.833Z,19.93
2023-03-15T22:42:27.693Z,18.10
2023-03-15T22:44:54.371Z,17.50
2023-03-15T22:47:21.159Z,14.43
2023-03-15T22:49:48.285Z,12.17
2023-03-15T22:52:15.399Z,17.67
2023-03-15T22:54:43.555Z,14.47
2023-03-15T22:57:11.416Z,22.47
2023-03-15T22:59:38.923Z,28.80
2023-03-15T23:02:05.779Z,17.00
2023-03-15T23:04:33.952Z,22.07
2023-03-15T23:07:01.771Z,20.17
2023-03-15T23:09:28.674Z,15.53
2023-03-15T23:11:55.507Z,15.40
2023-03-15T23:14:22.319Z,18.23
2023-03-15T23:16:49.138Z,18.33
2023-03-15T23:19:16.013Z,15.63
2023-03-15T23:21:43.804Z,15.07
2023-03-15T23:24:10.500Z,17.77
2023-03-15T23:26:37.412Z,19.20
2023-03-15T23:29:10.697Z,17.73
2023-03-15T23:31:41.706Z,23.27
2023-03-15T23:34:08.754Z,18.97
2023-03-15T23:36:35.917Z,15.57
2023-03-15T23:39:02.651Z,17.53
2023-03-15T23:41:29.440Z,19.43
2023-03-15T23:43:56.396Z,13.00
2023-03-15T23:46:26.232Z,17.43
2023-03-15T23:48:53.215Z,13.43
2023-03-15T23:51:22.158Z,15.50
2023-03-15T23:53:48.949Z,15.50
2023-03-15T23:56:15.669Z,19.53
2023-03-15T23:58:42.348Z,15.13
